Time;durP1;ratioP1;P1;durP2;ratioP2;P2;SDS_P1;SDS_P2;PMS_P1;PMS_P2;Temp;Humidity;BMP_temperature;BMP_pressure;BME280_temperature;BME280_humidity;BME280_pressure;Samples;Min_cycle;Max_cycle;Signal;HPM_P1;HPM_P2
2023/04/24 00:01:46;;;;;;;6.37;5.77;;;12.40;99.90;;;;;;5031716;28;20246;-52
2023/04/24 00:04:16;;;;;;;7.10;5.73;;;12.40;99.90;;;;;;5027953;28;20591;-52
2023/04/24 00:06:49;;;;;;;5.70;5.20;;;12.40;99.90;;;;;;5032475;28;20235;-51
2023/04/24 00:09:17;;;;;;;5.80;5.30;;;12.40;99.90;;;;;;5032481;28;20263;-52
2023/04/24 00:11:45;;;;;;;5.93;5.43;;;12.40;99.90;;;;;;5032578;28;20316;-52
2023/04/24 00:14:13;;;;;;;6.60;6.00;;;12.40;99.90;;;;;;5032453;28;20220;-51
2023/04/24 00:16:41;;;;;;;7.13;6.43;;;12.40;99.90;;;;;;5032470;28;20700;-52
2023/04/24 00:19:11;;;;;;;7.00;6.40;;;12.40;99.90;;;;;;5032406;28;20224;-52
2023/04/24 00:21:40;;;;;;;6.83;6.23;;;12.30;99.90;;;;;;5032185;28;20670;-51
2023/04/24 00:24:09;;;;;;;7.17;6.47;;;12.30;99.90;;;;;;5024392;28;20224;-51
2023/04/24 00:26:37;;;;;;;7.50;6.80;;;12.40;99.90;;;;;;5032071;28;20236;-53
2023/04/24 00:29:05;;;;;;;7.77;6.80;;;12.30;99.90;;;;;;5032330;28;20270;-51
2023/04/24 00:31:34;;;;;;;7.57;6.83;;;12.30;99.90;;;;;;5048858;28;20263;-52
2023/04/24 00:34:03;;;;;;;7.63;7.03;;;12.30;99.90;;;;;;5035676;28;20224;-51
2023/04/24 00:36:32;;;;;;;8.57;7.47;;;12.30;99.90;;;;;;5035897;28;20237;-50
2023/04/24 00:39:00;;;;;;;8.80;8.00;;;12.20;99.90;;;;;;5036115;28;20226;-52
2023/04/24 00:41:28;;;;;;;7.93;7.23;;;12.30;99.90;;;;;;5036080;28;20223;-52
2023/04/24 00:43:57;;;;;;;8.93;7.30;;;12.30;99.90;;;;;;5051232;28;20243;-52
2023/04/24 00:46:25;;;;;;;7.43;6.73;;;12.20;99.90;;;;;;5035847;28;20231;-52
2023/04/24 00:48:53;;;;;;;7.23;6.53;;;12.10;99.90;;;;;;5035672;28;20236;-51
2023/04/24 00:51:21;;;;;;;7.73;7.03;;;12.10;99.90;;;;;;5035794;28;20246;-50
2023/04/24 00:53:51;;;;;;;6.83;6.23;;;12.10;99.90;;;;;;5042678;28;20241;-52
2023/04/24 00:56:20;;;;;;;7.53;6.80;;;12.00;99.90;;;;;;5035622;28;20228;-51
2023/04/24 00:58:49;;;;;;;7.93;6.70;;;12.00;99.90;;;;;;5035534;28;20250;-52
2023/04/24 01:01:18;;;;;;;6.93;6.17;;;12.00;99.90;;;;;;5035040;28;20624;-50
2023/04/24 01:03:46;;;;;;;6.60;6.00;;;12.00;99.90;;;;;;5034815;28;20687;-52
2023/04/24 01:06:15;;;;;;;6.40;5.80;;;12.00;99.90;;;;;;5035578;28;20589;-51
2023/04/24 01:08:44;;;;;;;6.37;5.77;;;12.00;99.90;;;;;;5050762;28;20236;-51
2023/04/24 01:11:14;;;;;;;6.93;6.23;;;12.00;99.90;;;;;;5035419;28;20239;-50
2023/04/24 01:13:42;;;;;;;6.27;5.73;;;12.00;99.90;;;;;;5050291;28;20718;-53
2023/04/24 01:16:11;;;;;;;6.50;5.97;;;12.10;99.90;;;;;;5035283;28;20678;-51
2023/04/24 01:18:39;;;;;;;7.13;5.73;;;12.10;99.90;;;;;;5034827;28;20700;-51
2023/04/24 01:21:09;;;;;;;6.53;5.93;;;12.10;99.90;;;;;;5050639;28;20236;-52
2023/04/24 01:23:38;;;;;;;6.70;5.97;;;12.20;99.90;;;;;;5026856;28;20226;-50
2023/04/24 01:26:07;;;;;;;5.67;5.17;;;12.10;99.90;;;;;;5027481;28;20235;-51
2023/04/24 01:28:35;;;;;;;6.47;5.87;;;12.20;99.90;;;;;;5035040;28;20234;-50
2023/04/24 01:31:06;;;;;;;6.57;5.90;;;12.10;99.90;;;;;;5034733;28;20332;-51
2023/04/24 01:33:34;;;;;;;6.27;5.67;;;12.10;99.90;;;;;;5034814;28;20274;-52
2023/04/24 01:36:02;;;;;;;6.83;5.97;;;12.10;99.90;;;;;;5050230;28;20246;-53
2023/04/24 01:38:30;;;;;;;6.57;5.97;;;12.10;99.90;;;;;;5034850;28;20295;-52
2023/04/24 01:41:02;;;;;;;7.10;5.77;;;12.10;99.90;;;;;;5034854;28;20212;-50
2023/04/24 01:43:30;;;;;;;6.20;5.50;;;12.10;99.90;;;;;;5034465;28;20235;-49
2023/04/24 01:45:58;;;;;;;6.17;5.57;;;12.00;99.90;;;;;;5034929;28;20710;-51
2023/04/24 01:48:27;;;;;;;5.87;5.37;;;12.00;99.90;;;;;;5026304;28;20216;-51
2023/04/24 01:50:56;;;;;;;5.40;4.90;;;12.00;99.90;;;;;;5034573;28;20730;-51
2023/04/24 01:53:24;;;;;;;5.20;4.80;;;12.00;99.90;;;;;;5033987;28;20227;-51
2023/04/24 01:55:52;;;;;;;5.17;4.77;;;12.00;99.90;;;;;;5034401;28;20227;-51
2023/04/24 01:58:22;;;;;;;4.23;3.83;;;12.00;99.90;;;;;;5034550;28;20232;-52
2023/04/24 02:00:50;;;;;;;4.20;3.90;;;11.90;99.90;;;;;;5033989;28;20239;-51
2023/04/24 02:03:18;;;;;;;4.23;3.83;;;11.80;99.90;;;;;;5034372;28;20251;-51
2023/04/24 02:05:49;;;;;;;4.20;3.80;;;11.80;99.90;;;;;;5049533;28;20236;-51
2023/04/24 02:08:17;;;;;;;3.70;3.40;;;11.70;99.90;;;;;;5034382;28;20224;-51
2023/04/24 02:10:45;;;;;;;3.60;3.30;;;11.70;99.90;;;;;;5049511;28;20634;-52
2023/04/24 02:13:13;;;;;;;3.83;3.43;;;11.70;99.90;;;;;;5034316;28;20632;-51
2023/04/24 02:15:43;;;;;;;3.23;3.03;;;11.70;99.90;;;;;;5033995;28;20274;-50
2023/04/24 02:18:12;;;;;;;3.50;3.20;;;11.60;99.90;;;;;;5034095;28;20223;-51
2023/04/24 02:20:40;;;;;;;3.50;3.20;;;11.60;99.90;;;;;;5049329;28;20231;-53
2023/04/24 02:23:08;;;;;;;3.50;3.20;;;11.60;99.90;;;;;;5029726;28;20220;-51
2023/04/24 02:25:36;;;;;;;3.13;2.87;;;11.60;99.90;;;;;;5030248;28;20228;-51
2023/04/24 02:28:05;;;;;;;3.27;3.07;;;11.50;99.90;;;;;;5034105;28;20235;-50
2023/04/24 02:30:34;;;;;;;3.57;3.27;;;11.60;99.90;;;;;;5033436;28;20231;-50
2023/04/24 02:33:04;;;;;;;3.60;3.30;;;11.60;99.90;;;;;;5032571;28;20246;-51
2023/04/24 02:35:32;;;;;;;3.40;3.20;;;11.50;99.90;;;;;;5048907;28;20294;-50
2023/04/24 02:38:00;;;;;;;4.63;3.43;;;11.50;99.90;;;;;;5049212;28;20242;-50
2023/04/24 02:40:28;;;;;;;3.77;3.20;;;11.50;99.90;;;;;;5033516;28;20302;-52
2023/04/24 02:42:56;;;;;;;3.77;3.37;;;11.50;99.90;;;;;;5014006;28;20229;-51
2023/04/24 02:45:24;;;;;;;3.60;3.30;;;11.50;99.90;;;;;;5021513;28;20252;-51
2023/04/24 02:47:52;;;;;;;3.80;3.27;;;11.50;99.90;;;;;;5033426;28;20668;-50
2023/04/24 02:50:23;;;;;;;3.43;3.07;;;11.40;99.90;;;;;;5049020;28;20232;-50
2023/04/24 02:52:51;;;;;;;3.37;3.00;;;11.30;99.90;;;;;;5031475;28;20258;-50
2023/04/24 02:55:19;;;;;;;3.33;3.03;;;11.30;99.90;;;;;;5042317;28;20227;-51
2023/04/24 02:57:47;;;;;;;3.03;2.73;;;11.30;99.90;;;;;;5032913;28;20259;-50
2023/04/24 03:00:16;;;;;;;3.20;2.90;;;11.20;99.90;;;;;;5048300;28;20235;-50
2023/04/24 03:02:47;;;;;;;2.77;2.40;;;11.20;99.90;;;;;;5032916;28;20242;-51
2023/04/24 03:05:16;;;;;;;3.00;2.80;;;11.10;99.90;;;;;;5033271;28;20251;-52
2023/04/24 03:07:46;;;;;;;2.90;2.70;;;11.10;99.90;;;;;;5048456;28;20779;-51
2023/04/24 03:10:14;;;;;;;3.53;2.93;;;11.10;99.90;;;;;;5033239;28;20306;-52
2023/04/24 03:12:42;;;;;;;2.73;2.40;;;11.10;99.90;;;;;;5032515;28;20234;-50
2023/04/24 03:15:11;;;;;;;2.47;2.27;;;11.10;99.90;;;;;;5033472;28;20577;-50
2023/04/24 03:17:39;;;;;;;2.87;2.67;;;11.10;99.90;;;;;;5048133;28;20762;-51
2023/04/24 03:20:09;;;;;;;2.83;2.43;;;11.00;99.90;;;;;;5033253;28;20322;-51
2023/04/24 03:22:38;;;;;;;3.00;2.63;;;11.10;99.90;;;;;;5031509;28;20277;-50
2023/04/24 03:25:10;;;;;;;3.77;2.70;;;11.10;99.90;;;;;;5040644;28;20231;-50
2023/04/24 03:27:39;;;;;;;2.73;2.40;;;11.10;99.90;;;;;;5031487;28;20733;-50
2023/04/24 03:30:25;;;;;;;2.60;2.40;;;11.10;99.90;;;;;;5047790;28;20234;-50
2023/04/24 03:32:58;;;;;;;2.93;2.60;;;11.10;99.90;;;;;;5031301;28;20235;-50
2023/04/24 03:35:29;;;;;;;2.93;2.67;;;11.10;99.90;;;;;;5031293;28;20227;-50
2023/04/24 03:38:01;;;;;;;2.80;2.43;;;11.10;99.90;;;;;;5048039;28;20259;-50
2023/04/24 03:40:56;;;;;;;3.50;3.17;;;11.10;99.90;;;;;;5031521;28;20231;-52
2023/04/24 03:43:45;;;;;;;4.67;4.27;;;11.10;99.90;;;;;;5042614;28;20571;-51
2023/04/24 03:46:13;;;;;;;3.77;3.47;;;11.10;99.90;;;;;;5048084;28;20717;-50
2023/04/24 03:48:47;;;;;;;3.70;3.40;;;11.10;99.90;;;;;;5047698;28;20234;-50
2023/04/24 03:51:18;;;;;;;3.70;3.40;;;11.10;99.90;;;;;;5043592;28;20285;-51
2023/04/24 03:53:48;;;;;;;3.87;3.47;;;11.00;99.90;;;;;;5039414;28;20754;-50
2023/04/24 03:56:21;;;;;;;3.50;3.23;;;11.00;99.90;;;;;;5047503;28;20278;-50
2023/04/24 03:58:49;;;;;;;3.70;3.40;;;11.00;99.90;;;;;;5031288;28;20318;-51
2023/04/24 04:01:20;;;;;;;3.47;3.17;;;11.00;99.90;;;;;;5047319;28;20780;-51
2023/04/24 04:04:08;;;;;;;3.73;3.20;;;11.00;99.90;;;;;;5032236;28;20564;-49
2023/04/24 04:06:38;;;;;;;3.40;3.10;;;11.00;99.90;;;;;;5034897;28;20268;-52
2023/04/24 04:09:07;;;;;;;3.50;3.20;;;11.00;99.90;;;;;;5052039;28;20231;-50
2023/04/24 04:11:37;;;;;;;3.70;3.30;;;11.00;99.90;;;;;;5051595;28;20305;-51
2023/04/24 04:14:06;;;;;;;3.60;3.30;;;11.00;99.90;;;;;;5036515;28;20714;-51
2023/04/24 04:16:37;;;;;;;3.40;3.10;;;11.00;99.90;;;;;;5035093;28;20235;-50
2023/04/24 04:19:06;;;;;;;3.60;3.30;;;11.00;99.90;;;;;;5027293;28;20224;-51
2023/04/24 04:21:35;;;;;;;3.33;3.10;;;11.00;99.90;;;;;;5051634;28;20227;-50
2023/04/24 04:24:11;;;;;;;3.70;3.40;;;11.10;99.90;;;;;;5043274;28;20230;-52
2023/04/24 04:26:46;;;;;;;4.60;3.37;;;11.10;99.90;;;;;;5051312;28;20237;-50
2023/04/24 04:29:23;;;;;;;3.37;3.07;;;11.10;99.90;;;;;;5051692;28;20254;-52
2023/04/24 04:31:52;;;;;;;3.60;2.90;;;11.10;99.90;;;;;;5051186;28;20750;-53
2023/04/24 04:34:22;;;;;;;3.37;3.07;;;11.10;99.90;;;;;;5034751;28;20258;-50
2023/04/24 04:36:51;;;;;;;3.30;3.00;;;11.20;99.90;;;;;;5034631;28;20228;-50
2023/04/24 04:39:30;;;;;;;4.03;2.90;;;11.20;99.90;;;;;;5050546;28;20235;-50
2023/04/24 04:42:21;;;;;;;2.90;2.63;;;11.20;99.90;;;;;;5051308;28;20223;-49
2023/04/24 04:44:51;;;;;;;4.87;2.90;;;11.20;99.90;;;;;;5051141;28;20231;-50
2023/04/24 04:47:26;;;;;;;3.10;2.80;;;11.30;99.90;;;;;;5034287;28;20608;-50
2023/04/24 04:49:56;;;;;;;2.73;2.53;;;11.30;99.90;;;;;;5034433;28;20270;-51
2023/04/24 04:52:27;;;;;;;4.33;2.63;;;11.30;99.90;;;;;;5050701;28;20706;-51
2023/04/24 04:55:05;;;;;;;4.10;2.80;;;11.30;99.90;;;;;;5048616;28;20231;-49
2023/04/24 04:57:55;;;;;;;2.83;2.60;;;11.30;99.90;;;;;;5016435;28;20735;-50
2023/04/24 05:00:25;;;;;;;4.67;2.60;;;11.30;99.90;;;;;;5014257;28;20310;-51
2023/04/24 05:02:54;;;;;;;2.40;2.20;;;11.30;99.90;;;;;;5014501;28;20342;-50
2023/04/24 05:05:29;;;;;;;2.40;2.20;;;11.30;99.90;;;;;;5030897;28;20232;-50
2023/04/24 05:07:57;;;;;;;3.23;2.37;;;11.40;99.90;;;;;;5014463;28;20232;-50
2023/04/24 05:10:25;;;;;;;2.27;2.07;;;11.40;99.90;;;;;;5030970;28;20263;-51
2023/04/24 05:12:57;;;;;;;3.20;2.13;;;11.40;99.90;;;;;;5014329;28;20293;-50
2023/04/24 05:15:25;;;;;;;2.23;2.03;;;11.40;99.90;;;;;;5029344;28;20255;-49
2023/04/24 05:17:53;;;;;;;3.03;2.00;;;11.40;99.90;;;;;;5032920;28;20301;-50
2023/04/24 05:20:25;;;;;;;3.50;2.27;;;11.40;99.90;;;;;;5050320;28;20228;-52
2023/04/24 05:22:54;;;;;;;3.00;2.67;;;11.40;99.90;;;;;;5042916;28;20238;-51
2023/04/24 05:25:24;;;;;;;3.00;2.30;;;11.50;99.90;;;;;;5041314;28;20227;-52
2023/04/24 05:27:58;;;;;;;3.07;2.30;;;11.50;99.90;;;;;;5015418;28;20714;-51
2023/04/24 05:30:26;;;;;;;2.73;2.00;;;11.50;99.90;;;;;;5026443;28;20280;-50
2023/04/24 05:32:55;;;;;;;2.10;1.90;;;11.50;99.90;;;;;;5025218;28;20994;-50
2023/04/24 05:35:24;;;;;;;2.30;1.90;;;11.50;99.90;;;;;;5019719;28;20303;-52
2023/04/24 05:37:52;;;;;;;2.10;1.90;;;11.50;99.90;;;;;;5018704;28;20223;-52
2023/04/24 05:40:20;;;;;;;2.57;1.90;;;11.60;99.90;;;;;;5017973;28;20231;-52
2023/04/24 05:42:49;;;;;;;2.10;1.83;;;11.50;99.90;;;;;;5016457;28;21457;-51
2023/04/24 05:45:18;;;;;;;2.50;1.80;;;11.60;99.90;;;;;;5019205;28;20324;-50
2023/04/24 05:47:47;;;;;;;2.43;2.17;;;11.60;99.90;;;;;;5013426;28;20292;-52
2023/04/24 05:50:15;;;;;;;3.30;2.20;;;11.70;99.90;;;;;;5019261;28;20706;-49
2023/04/24 05:52:43;;;;;;;3.63;2.07;;;11.70;99.90;;;;;;5029566;28;20235;-50
2023/04/24 05:55:24;;;;;;;2.33;2.00;;;11.80;99.90;;;;;;5017902;28;20235;-52
2023/04/24 05:57:52;;;;;;;3.07;1.90;;;11.90;99.90;;;;;;5029842;28;20237;-51
2023/04/24 06:00:22;;;;;;;2.70;2.00;;;12.00;99.90;;;;;;5032713;28;20614;-50
2023/04/24 06:02:59;;;;;;;2.30;2.10;;;12.00;99.90;;;;;;5015820;28;20247;-54
2023/04/24 06:05:28;;;;;;;2.73;2.10;;;12.00;99.90;;;;;;5017287;28;20237;-52
2023/04/24 06:07:56;;;;;;;2.33;1.90;;;12.00;99.90;;;;;;5018915;28;20236;-53
2023/04/24 06:10:28;;;;;;;3.37;2.43;;;12.10;99.90;;;;;;5015358;28;20235;-53
2023/04/24 06:13:00;;;;;;;2.27;1.93;;;12.10;99.90;;;;;;5032092;28;20231;-52
2023/04/24 06:15:31;;;;;;;3.50;2.30;;;12.10;99.90;;;;;;5018392;28;20256;-53
2023/04/24 06:18:09;;;;;;;2.20;2.00;;;12.20;99.90;;;;;;5030069;28;20236;-52
2023/04/24 06:20:39;;;;;;;3.03;1.70;;;12.20;99.90;;;;;;5028566;28;21138;-52
2023/04/24 06:23:09;;;;;;;3.40;2.30;;;12.40;99.90;;;;;;5031345;28;20340;-52
2023/04/24 06:25:40;;;;;;;2.80;2.17;;;12.40;99.90;;;;;;5013680;28;20227;-53
2023/04/24 06:28:08;;;;;;;2.67;2.47;;;12.40;99.90;;;;;;5018530;28;20242;-50
2023/04/24 06:30:38;;;;;;;2.90;2.30;;;12.40;99.90;;;;;;5016397;28;20235;-52
2023/04/24 06:33:06;;;;;;;3.00;2.70;;;12.50;99.90;;;;;;5016504;28;21724;-52
2023/04/24 06:35:47;;;;;;;2.77;2.37;;;12.60;99.90;;;;;;5018083;28;20575;-51
2023/04/24 06:38:16;;;;;;;2.83;2.60;;;12.60;99.90;;;;;;5017589;28;20220;-52
2023/04/24 06:40:44;;;;;;;3.40;2.70;;;12.50;99.90;;;;;;5017497;28;20234;-53
2023/04/24 06:43:12;;;;;;;3.23;2.93;;;12.50;99.90;;;;;;5016273;28;20667;-51
2023/04/24 06:45:43;;;;;;;3.10;2.80;;;12.40;99.90;;;;;;5018103;28;20734;-50
2023/04/24 06:48:12;;;;;;;3.70;3.40;;;12.30;99.90;;;;;;5017917;28;20235;-53
2023/04/24 06:50:40;;;;;;;3.67;3.10;;;12.50;99.90;;;;;;5017814;28;21239;-54
2023/04/24 06:53:10;;;;;;;3.80;2.80;;;13.00;99.90;;;;;;5016419;28;20634;-51
2023/04/24 06:55:39;;;;;;;3.20;2.90;;;13.40;99.90;;;;;;5018513;28;20231;-51
2023/04/24 06:58:07;;;;;;;3.90;3.30;;;13.60;99.90;;;;;;5019896;28;20228;-53
2023/04/24 07:00:36;;;;;;;3.20;3.00;;;13.50;99.90;;;;;;5017663;28;20267;-52
2023/04/24 07:03:06;;;;;;;4.20;3.90;;;13.30;99.90;;;;;;5015694;28;20248;-53
2023/04/24 07:05:35;;;;;;;3.43;3.23;;;13.10;99.90;;;;;;5017794;28;20638;-53
2023/04/24 07:08:04;;;;;;;4.13;3.73;;;13.00;99.90;;;;;;5017777;28;20229;-57
2023/04/24 07:10:33;;;;;;;4.50;4.10;;;12.90;99.90;;;;;;5017740;28;20318;-57
2023/04/24 07:13:02;;;;;;;4.13;3.30;;;12.90;99.90;;;;;;5016284;28;20315;-56
2023/04/24 07:15:30;;;;;;;3.77;3.47;;;12.90;99.90;;;;;;5017294;28;20715;-57
2023/04/24 07:17:58;;;;;;;4.33;3.73;;;12.90;99.90;;;;;;5018076;28;20711;-58
2023/04/24 07:20:28;;;;;;;4.50;3.90;;;12.90;99.90;;;;;;5018255;28;20250;-57
2023/04/24 07:22:56;;;;;;;4.57;4.17;;;12.90;99.90;;;;;;5016023;28;20224;-58
2023/04/24 07:25:24;;;;;;;4.30;3.90;;;12.90;99.90;;;;;;5018818;28;20224;-57
2023/04/24 07:27:53;;;;;;;4.97;4.57;;;12.90;99.90;;;;;;5017534;28;20215;-57
2023/04/24 07:30:22;;;;;;;4.63;4.33;;;12.80;99.90;;;;;;5016970;28;20773;-56
2023/04/24 07:32:50;;;;;;;4.63;4.23;;;12.90;99.90;;;;;;5013872;28;20262;-56
2023/04/24 07:35:19;;;;;;;4.93;4.53;;;12.90;99.90;;;;;;5017206;28;21240;-58
2023/04/24 07:37:49;;;;;;;6.10;5.10;;;12.90;99.90;;;;;;5018840;28;20687;-57
2023/04/24 07:40:17;;;;;;;4.60;4.20;;;12.80;99.90;;;;;;5019593;28;20286;-57
2023/04/24 07:42:48;;;;;;;4.80;4.40;;;12.80;99.90;;;;;;5017829;28;20242;-58
2023/04/24 07:45:16;;;;;;;5.37;4.90;;;12.80;99.90;;;;;;5020309;28;20282;-57
2023/04/24 07:47:45;;;;;;;5.63;5.13;;;12.80;99.90;;;;;;5019643;28;20646;-58
2023/04/24 07:50:13;;;;;;;5.00;4.60;;;12.80;99.90;;;;;;5020260;28;20301;-57
2023/04/24 07:52:41;;;;;;;6.37;5.43;;;12.80;99.90;;;;;;5017849;28;21425;-58
2023/04/24 07:55:11;;;;;;;5.20;4.80;;;12.80;99.90;;;;;;5020218;28;20603;-57
2023/04/24 07:57:39;;;;;;;6.57;5.40;;;12.80;99.90;;;;;;5019774;28;20339;-58
2023/04/24 08:00:09;;;;;;;5.03;4.63;;;12.70;99.90;;;;;;5020171;28;20239;-56
2023/04/24 08:02:39;;;;;;;5.60;4.93;;;12.70;99.90;;;;;;5013554;28;21347;-57
2023/04/24 08:05:08;;;;;;;6.17;5.67;;;12.80;99.90;;;;;;5016279;28;20224;-57
2023/04/24 08:07:37;;;;;;;6.17;5.60;;;12.70;99.90;;;;;;5017169;28;21263;-57
2023/04/24 08:10:06;;;;;;;6.33;5.50;;;12.60;99.90;;;;;;5017223;28;20641;-57
2023/04/24 08:12:36;;;;;;;6.70;6.00;;;12.60;99.90;;;;;;5015001;28;20710;-57
2023/04/24 08:15:05;;;;;;;6.50;5.90;;;12.70;99.90;;;;;;5020261;28;20251;-58
2023/04/24 08:17:34;;;;;;;6.27;5.67;;;12.80;99.90;;;;;;5019895;28;20228;-57
2023/04/24 08:20:03;;;;;;;6.47;5.77;;;12.80;99.90;;;;;;5019476;28;20301;-58
2023/04/24 08:22:32;;;;;;;6.90;6.30;;;12.80;99.90;;;;;;5016925;28;20240;-58
2023/04/24 08:25:01;;;;;;;7.20;6.60;;;12.90;99.90;;;;;;5019693;28;20235;-58
2023/04/24 08:27:29;;;;;;;7.87;7.20;;;13.10;99.90;;;;;;5019218;28;20232;-58
2023/04/24 08:29:59;;;;;;;7.03;6.43;;;13.20;99.90;;;;;;5019597;28;20342;-58
2023/04/24 08:32:31;;;;;;;7.60;6.90;;;13.30;99.90;;;;;;5016936;28;20236;-58
2023/04/24 08:34:59;;;;;;;7.40;6.80;;;13.50;99.90;;;;;;5019390;28;21446;-57
2023/04/24 08:37:29;;;;;;;8.67;7.87;;;13.60;99.90;;;;;;5019720;28;20619;-58
2023/04/24 08:39:57;;;;;;;9.50;8.70;;;13.80;99.90;;;;;;5019757;28;20320;-58
2023/04/24 08:42:33;;;;;;;9.07;8.13;;;14.00;99.90;;;;;;5029946;28;20315;-58
2023/04/24 08:45:02;;;;;;;8.67;7.87;;;14.00;99.90;;;;;;5019660;28;20419;-58
2023/04/24 08:47:32;;;;;;;8.63;7.83;;;14.20;99.90;;;;;;5019530;28;20232;-58
2023/04/24 08:50:02;;;;;;;9.27;8.40;;;14.40;99.90;;;;;;5019435;28;20237;-57
2023/04/24 08:52:31;;;;;;;9.23;8.43;;;14.20;99.90;;;;;;5019221;28;20759;-58
2023/04/24 08:55:00;;;;;;;9.30;8.47;;;14.20;99.90;;;;;;5023239;28;20242;-58
2023/04/24 08:57:29;;;;;;;9.00;8.20;;;14.20;99.90;;;;;;5023453;28;20730;-58
2023/04/24 08:59:58;;;;;;;8.77;8.07;;;14.10;99.90;;;;;;5023219;28;20240;-58
2023/04/24 09:02:28;;;;;;;9.17;8.37;;;13.90;99.90;;;;;;5020422;28;20236;-58
2023/04/24 09:04:57;;;;;;;8.60;7.90;;;14.10;99.90;;;;;;5033126;28;20696;-58
2023/04/24 09:07:26;;;;;;;8.50;7.80;;;13.90;99.90;;;;;;5021598;28;20323;-57
2023/04/24 09:09:55;;;;;;;8.17;7.37;;;13.80;99.90;;;;;;5021228;28;20252;-58
2023/04/24 09:12:23;;;;;;;8.60;7.20;;;13.50;99.90;;;;;;5018679;28;20508;-57
2023/04/24 09:14:53;;;;;;;8.03;6.73;;;13.40;99.90;;;;;;5020586;28;20267;-58
2023/04/24 09:17:22;;;;;;;7.03;6.40;;;13.40;99.90;;;;;;5021001;28;20239;-58
2023/04/24 09:19:53;;;;;;;8.83;6.83;;;13.60;99.90;;;;;;5021378;28;20310;-58
2023/04/24 09:22:22;;;;;;;6.83;6.23;;;13.70;99.90;;;;;;5018672;28;20236;-57
2023/04/24 09:25:02;;;;;;;7.30;6.60;;;14.00;99.90;;;;;;5020525;28;20220;-58
2023/04/24 09:27:31;;;;;;;7.00;6.00;;;14.10;99.90;;;;;;5022514;28;20236;-58
2023/04/24 09:29:59;;;;;;;7.47;6.87;;;14.10;99.90;;;;;;5019647;28;20235;-58
2023/04/24 09:32:29;;;;;;;8.17;6.60;;;13.90;99.90;;;;;;5017232;28;20830;-58
2023/04/24 09:35:13;;;;;;;7.30;6.60;;;13.80;99.90;;;;;;5020214;28;20243;-58
2023/04/24 09:37:43;;;;;;;7.87;7.17;;;13.70;99.90;;;;;;5020679;28;20738;-56
2023/04/24 09:40:17;;;;;;;8.73;7.93;;;13.60;99.90;;;;;;5020804;28;20252;-58
2023/04/24 09:42:47;;;;;;;8.43;7.70;;;13.40;99.90;;;;;;5018255;28;20718;-58
2023/04/24 09:45:15;;;;;;;7.83;7.13;;;13.30;99.90;;;;;;5021101;28;20707;-57
2023/04/24 09:47:44;;;;;;;7.93;7.13;;;13.20;99.90;;;;;;5022472;28;20336;-58
2023/04/24 09:50:18;;;;;;;7.57;6.80;;;13.20;99.90;;;;;;5022544;28;20239;-58
2023/04/24 09:52:57;;;;;;;8.07;7.17;;;13.20;99.90;;;;;;5019685;28;20381;-58
2023/04/24 09:55:26;;;;;;;8.30;7.50;;;13.30;99.90;;;;;;5021208;28;20579;-57
2023/04/24 09:57:56;;;;;;;8.60;7.80;;;13.40;99.90;;;;;;5019772;28;20766;-57
2023/04/24 10:00:26;;;;;;;9.93;7.87;;;13.40;99.90;;;;;;5019905;28;20243;-57
2023/04/24 10:02:59;;;;;;;8.67;7.80;;;13.40;99.90;;;;;;5017154;28;20320;-57
2023/04/24 10:05:33;;;;;;;9.53;8.63;;;13.30;99.90;;;;;;5020286;28;20228;-58
2023/04/24 10:08:04;;;;;;;9.43;8.53;;;13.20;99.90;;;;;;5019738;28;20231;-57
2023/04/24 10:10:33;;;;;;;9.17;8.27;;;13.20;99.90;;;;;;5020087;28;20837;-57
2023/04/24 10:13:02;;;;;;;9.60;8.60;;;13.20;99.90;;;;;;5017822;28;20232;-58
2023/04/24 10:15:31;;;;;;;8.97;8.13;;;13.20;99.90;;;;;;5020155;28;20232;-58
2023/04/24 10:18:00;;;;;;;9.57;8.53;;;13.20;99.90;;;;;;5020417;28;20227;-57
2023/04/24 10:20:30;;;;;;;10.67;8.30;;;13.20;99.90;;;;;;5020035;28;20232;-58
2023/04/24 10:23:00;;;;;;;9.20;8.30;;;13.30;99.90;;;;;;5017511;28;20244;-57
2023/04/24 10:25:30;;;;;;;9.80;8.80;;;13.30;99.90;;;;;;5021073;28;20570;-57
2023/04/24 10:27:59;;;;;;;10.43;9.33;;;13.30;99.90;;;;;;5020627;28;20236;-58
2023/04/24 10:30:29;;;;;;;10.03;9.00;;;13.20;99.90;;;;;;5019296;28;20264;-58
2023/04/24 10:32:57;;;;;;;11.87;10.67;;;13.20;99.90;;;;;;5017231;28;20782;-58
2023/04/24 10:35:26;;;;;;;10.77;9.87;;;13.30;99.90;;;;;;5019939;28;20233;-57
2023/04/24 10:38:00;;;;;;;13.03;11.70;;;13.30;99.90;;;;;;5019841;28;20696;-57
2023/04/24 10:40:31;;;;;;;12.67;11.37;;;13.30;99.90;;;;;;5019710;28;20252;-57
2023/04/24 10:43:00;;;;;;;13.47;12.27;;;13.20;99.90;;;;;;5017164;28;20651;-58
2023/04/24 10:45:29;;;;;;;13.93;12.13;;;13.10;99.90;;;;;;5019800;28;20751;-58
2023/04/24 10:48:00;;;;;;;15.10;13.10;;;13.00;99.90;;;;;;5019580;28;20225;-57
2023/04/24 10:50:44;;;;;;;14.47;12.93;;;13.00;99.90;;;;;;5019651;28;20235;-57
2023/04/24 10:53:19;;;;;;;14.87;13.37;;;12.90;99.90;;;;;;5016557;28;20232;-57
2023/04/24 10:55:48;;;;;;;15.43;13.77;;;12.90;99.90;;;;;;5019151;28;20228;-58
2023/04/24 10:58:17;;;;;;;14.03;12.47;;;12.80;99.90;;;;;;5019705;28;20757;-57
2023/04/24 11:00:57;;;;;;;13.93;12.53;;;12.90;99.90;;;;;;5017959;28;20801;-57
2023/04/24 11:03:28;;;;;;;13.33;12.03;;;12.90;99.90;;;;;;5020190;28;20729;-58
2023/04/24 11:05:59;;;;;;;13.93;12.53;;;12.90;99.90;;;;;;5020894;28;20319;-57
2023/04/24 11:08:31;;;;;;;14.33;12.80;;;12.80;99.90;;;;;;5021112;28;20228;-58
2023/04/24 11:11:02;;;;;;;13.60;12.20;;;12.80;99.90;;;;;;5020999;28;20298;-57
2023/04/24 11:14:07;;;;;;;13.37;11.77;;;12.70;99.90;;;;;;5019005;28;20240;-56
2023/04/24 11:16:39;;;;;;;13.10;11.63;;;12.70;99.90;;;;;;5019986;28;20236;-58
2023/04/24 11:19:09;;;;;;;12.93;11.53;;;12.70;99.90;;;;;;5020725;28;20278;-57
2023/04/24 11:21:42;;;;;;;12.87;11.37;;;12.80;99.90;;;;;;5018841;28;20221;-58
2023/04/24 11:24:26;;;;;;;12.57;11.27;;;12.70;99.90;;;;;;5016728;28;20303;-57
2023/04/24 11:26:56;;;;;;;12.37;11.17;;;12.70;99.90;;;;;;5018802;28;20235;-57
2023/04/24 11:29:39;;;;;;;12.07;10.83;;;12.80;99.90;;;;;;5019120;28;20232;-58
2023/04/24 11:32:19;;;;;;;13.10;11.20;;;12.90;99.90;;;;;;5015005;28;20244;-58
2023/04/24 11:34:49;;;;;;;12.37;10.63;;;12.90;99.90;;;;;;5017548;28;20322;-57
2023/04/24 11:37:17;;;;;;;12.80;11.27;;;12.90;99.90;;;;;;5017681;28;20243;-58
2023/04/24 11:39:47;;;;;;;11.90;10.80;;;12.90;99.90;;;;;;5017606;28;20232;-58
2023/04/24 11:42:16;;;;;;;11.97;10.87;;;12.90;99.90;;;;;;5014746;28;20327;-57
2023/04/24 11:44:47;;;;;;;11.07;10.07;;;12.80;99.90;;;;;;5017415;28;20834;-57
2023/04/24 11:47:15;;;;;;;10.83;9.73;;;12.90;99.90;;;;;;5018112;28;20225;-57
2023/04/24 11:49:44;;;;;;;10.70;9.77;;;12.80;99.90;;;;;;5019898;28;20232;-58
2023/04/24 11:52:16;;;;;;;11.23;9.73;;;12.80;99.90;;;;;;5018004;28;20251;-57
2023/04/24 11:54:50;;;;;;;10.83;9.87;;;12.70;99.90;;;;;;5019903;28;20232;-56
2023/04/24 11:57:21;;;;;;;11.27;9.83;;;12.80;99.90;;;;;;5020655;28;20309;-57
2023/04/24 11:59:50;;;;;;;8.97;8.17;;;12.70;99.90;;;;;;5019795;28;20628;-57
2023/04/24 12:02:22;;;;;;;9.50;8.60;;;12.60;99.90;;;;;;5017560;28;20240;-57
2023/04/24 12:04:51;;;;;;;8.37;7.47;;;12.60;99.90;;;;;;5015956;28;20240;-56
2023/04/24 12:07:20;;;;;;;9.47;8.60;;;12.60;99.90;;;;;;5016926;28;20286;-58
2023/04/24 12:09:57;;;;;;;9.10;8.30;;;12.60;99.90;;;;;;5017557;28;20224;-57
2023/04/24 12:12:28;;;;;;;8.40;7.60;;;12.60;99.90;;;;;;5015928;28;20236;-57
2023/04/24 12:14:58;;;;;;;8.83;7.57;;;12.60;99.90;;;;;;5017993;28;20741;-57
2023/04/24 12:17:29;;;;;;;8.57;7.87;;;12.70;99.90;;;;;;5018551;28;20243;-58
2023/04/24 12:20:02;;;;;;;8.73;7.97;;;12.70;99.90;;;;;;5020130;28;20244;-57
2023/04/24 12:22:45;;;;;;;8.07;7.27;;;12.80;99.90;;;;;;5015952;28;20715;-57
2023/04/24 12:25:17;;;;;;;7.90;7.20;;;12.80;99.90;;;;;;5017909;28;20235;-57
2023/04/24 12:27:47;;;;;;;7.83;7.13;;;12.80;99.90;;;;;;5021672;28;20278;-58
2023/04/24 12:30:17;;;;;;;7.70;7.00;;;12.80;99.90;;;;;;5021186;28;20250;-57
2023/04/24 12:32:47;;;;;;;8.10;7.30;;;12.90;99.90;;;;;;5018774;28;20318;-57
2023/04/24 12:35:21;;;;;;;8.23;7.53;;;13.00;99.90;;;;;;5021663;28;20243;-58
2023/04/24 12:37:49;;;;;;;7.87;7.27;;;12.80;99.90;;;;;;5021028;28;20246;-58
2023/04/24 12:40:20;;;;;;;8.40;7.67;;;12.70;99.90;;;;;;5021300;28;20231;-57
2023/04/24 12:42:52;;;;;;;7.53;6.90;;;12.50;99.90;;;;;;5018918;28;20240;-57
2023/04/24 12:45:23;;;;;;;7.63;7.00;;;12.50;99.90;;;;;;5021317;28;20228;-57
2023/04/24 12:47:52;;;;;;;6.90;6.30;;;12.40;99.90;;;;;;5021359;28;20285;-57
2023/04/24 12:50:20;;;;;;;7.70;6.87;;;12.50;99.90;;;;;;5021147;28;20238;-58
2023/04/24 12:52:49;;;;;;;7.37;6.67;;;12.50;99.90;;;;;;5018802;28;20232;-56
2023/04/24 12:55:18;;;;;;;7.57;6.90;;;12.60;99.90;;;;;;5020660;28;20250;-58
2023/04/24 12:57:47;;;;;;;7.90;7.20;;;12.70;99.90;;;;;;5020277;28;20244;-58
2023/04/24 13:00:16;;;;;;;8.57;7.77;;;12.70;99.90;;;;;;5022793;28;20229;-56
2023/04/24 13:02:47;;;;;;;9.47;8.50;;;12.70;99.90;;;;;;5020853;28;20252;-57